sensor_id;sensor_type;location;lat;lon;timestamp;temperature;humidity
10247;DHT22;5168;47.854;7.944;2022-07-23T00:02:00;19.30;99.90
10247;DHT22;5168;47.854;7.944;2022-07-23T00:04:25;19.70;99.90
10247;DHT22;5168;47.854;7.944;2022-07-23T00:06:51;19.10;99.90
10247;DHT22;5168;47.854;7.944;2022-07-23T00:09:16;18.80;99.90
10247;DHT22;5168;47.854;7.944;2022-07-23T00:14:08;19.40;99.90
10247;DHT22;5168;47.854;7.944;2022-07-23T00:21:27;19.00;99.90
10247;DHT22;5168;47.854;7.944;2022-07-23T00:23:53;18.70;99.90
10247;DHT22;5168;47.854;7.944;2022-07-23T00:26:18;19.00;99.90
10247;DHT22;5168;47.854;7.944;2022-07-23T00:31:10;19.10;99.90
10247;DHT22;5168;47.854;7.944;2022-07-23T00:33:35;19.30;99.90
10247;DHT22;5168;47.854;7.944;2022-07-23T00:36:01;19.00;99.90
10247;DHT22;5168;47.854;7.944;2022-07-23T00:40:52;18.80;99.90
10247;DHT22;5168;47.854;7.944;2022-07-23T00:43:20;19.20;99.90
10247;DHT22;5168;47.854;7.944;2022-07-23T00:45:46;19.10;99.90
10247;DHT22;5168;47.854;7.944;2022-07-23T00:48:12;18.70;99.90
10247;DHT22;5168;47.854;7.944;2022-07-23T00:53:04;18.50;99.90
10247;DHT22;5168;47.854;7.944;2022-07-23T00:55:30;18.70;99.90
10247;DHT22;5168;47.854;7.944;2022-07-23T01:02:48;18.60;99.90
10247;DHT22;5168;47.854;7.944;2022-07-23T01:05:13;18.40;99.90
10247;DHT22;5168;47.854;7.944;2022-07-23T01:07:39;19.00;99.90
10247;DHT22;5168;47.854;7.944;2022-07-23T01:10:06;18.40;99.90
10247;DHT22;5168;47.854;7.944;2022-07-23T01:15:18;18.70;99.90
10247;DHT22;5168;47.854;7.944;2022-07-23T01:25:01;18.00;99.90
10247;DHT22;5168;47.854;7.944;2022-07-23T01:27:27;18.30;99.90
10247;DHT22;5168;47.854;7.944;2022-07-23T01:29:54;18.70;99.90
10247;DHT22;5168;47.854;7.944;2022-07-23T01:32:20;18.70;99.90
10247;DHT22;5168;47.854;7.944;2022-07-23T01:34:45;18.50;99.90
10247;DHT22;5168;47.854;7.944;2022-07-23T01:37:11;19.00;99.90
10247;DHT22;5168;47.854;7.944;2022-07-23T01:42:02;18.20;99.90
10247;DHT22;5168;47.854;7.944;2022-07-23T01:44:28;19.00;99.90
10247;DHT22;5168;47.854;7.944;2022-07-23T01:46:53;18.20;99.90
10247;DHT22;5168;47.854;7.944;2022-07-23T01:49:20;18.10;99.90
10247;DHT22;5168;47.854;7.944;2022-07-23T01:54:29;18.50;99.90
10247;DHT22;5168;47.854;7.944;2022-07-23T01:56:55;18.00;99.90
10247;DHT22;5168;47.854;7.944;2022-07-23T01:59:22;18.40;99.90
10247;DHT22;5168;47.854;7.944;2022-07-23T02:01:48;18.50;99.90
10247;DHT22;5168;47.854;7.944;2022-07-23T02:04:16;18.30;99.90
10247;DHT22;5168;47.854;7.944;2022-07-23T02:06:42;17.80;99.90
10247;DHT22;5168;47.854;7.944;2022-07-23T02:09:07;17.60;99.90
10247;DHT22;5168;47.854;7.944;2022-07-23T02:11:33;17.60;99.90
10247;DHT22;5168;47.854;7.944;2022-07-23T02:21:17;18.10;99.90
10247;DHT22;5168;47.854;7.944;2022-07-23T02:23:42;18.30;99.90
10247;DHT22;5168;47.854;7.944;2022-07-23T02:26:08;17.90;99.90
10247;DHT22;5168;47.854;7.944;2022-07-23T02:28:33;17.60;99.90
10247;DHT22;5168;47.854;7.944;2022-07-23T02:30:59;17.70;99.90
10247;DHT22;5168;47.854;7.944;2022-07-23T02:33:27;18.50;99.90
10247;DHT22;5168;47.854;7.944;2022-07-23T02:43:10;17.60;99.90
10247;DHT22;5168;47.854;7.944;2022-07-23T02:48:02;17.70;99.90
10247;DHT22;5168;47.854;7.944;2022-07-23T02:50:28;17.60;99.90
10247;DHT22;5168;47.854;7.944;2022-07-23T02:52:54;17.90;99.90
10247;DHT22;5168;47.854;7.944;2022-07-23T02:55:20;18.10;99.90
10247;DHT22;5168;47.854;7.944;2022-07-23T03:00:12;17.50;99.90
10247;DHT22;5168;47.854;7.944;2022-07-23T03:05:04;17.60;99.90
10247;DHT22;5168;47.854;7.944;2022-07-23T03:07:48;17.50;99.90
10247;DHT22;5168;47.854;7.944;2022-07-23T03:10:13;17.60;99.90
10247;DHT22;5168;47.854;7.944;2022-07-23T03:12:39;17.70;99.90
10247;DHT22;5168;47.854;7.944;2022-07-23T03:15:05;17.70;99.90
10247;DHT22;5168;47.854;7.944;2022-07-23T03:17:30;17.70;99.90
10247;DHT22;5168;47.854;7.944;2022-07-23T03:22:22;17.70;99.90
10247;DHT22;5168;47.854;7.944;2022-07-23T03:24:48;17.80;99.90
10247;DHT22;5168;47.854;7.944;2022-07-23T03:27:22;17.10;99.90
10247;DHT22;5168;47.854;7.944;2022-07-23T03:29:53;17.60;99.90
10247;DHT22;5168;47.854;7.944;2022-07-23T03:32:19;17.60;99.90
10247;DHT22;5168;47.854;7.944;2022-07-23T03:34:45;17.20;99.90
10247;DHT22;5168;47.854;7.944;2022-07-23T03:37:11;16.70;99.90
10247;DHT22;5168;47.854;7.944;2022-07-23T03:42:03;17.30;99.90
10247;DHT22;5168;47.854;7.944;2022-07-23T03:49:20;17.10;99.90
10247;DHT22;5168;47.854;7.944;2022-07-23T03:51:46;16.90;99.90
10247;DHT22;5168;47.854;7.944;2022-07-23T03:54:11;16.90;99.90
10247;DHT22;5168;47.854;7.944;2022-07-23T03:59:03;16.80;99.90
10247;DHT22;5168;47.854;7.944;2022-07-23T04:06:21;17.10;99.90
10247;DHT22;5168;47.854;7.944;2022-07-23T04:08:46;16.80;99.90
10247;DHT22;5168;47.854;7.944;2022-07-23T04:13:38;16.10;99.90
10247;DHT22;5168;47.854;7.944;2022-07-23T04:16:04;16.90;99.90
10247;DHT22;5168;47.854;7.944;2022-07-23T04:20:55;17.00;99.90
10247;DHT22;5168;47.854;7.944;2022-07-23T04:23:21;16.10;99.90
10247;DHT22;5168;47.854;7.944;2022-07-23T04:25:47;16.20;99.90
10247;DHT22;5168;47.854;7.944;2022-07-23T04:28:12;16.70;99.90
10247;DHT22;5168;47.854;7.944;2022-07-23T04:30:39;16.00;99.90
10247;DHT22;5168;47.854;7.944;2022-07-23T04:33:04;16.60;99.90
10247;DHT22;5168;47.854;7.944;2022-07-23T04:35:32;16.90;99.90
10247;DHT22;5168;47.854;7.944;2022-07-23T04:40:25;16.90;99.90
10247;DHT22;5168;47.854;7.944;2022-07-23T04:42:50;16.90;99.90
10247;DHT22;5168;47.854;7.944;2022-07-23T04:45:16;16.90;99.90
10247;DHT22;5168;47.854;7.944;2022-07-23T04:47:41;16.50;99.90
10247;DHT22;5168;47.854;7.944;2022-07-23T04:50:07;16.90;99.90
10247;DHT22;5168;47.854;7.944;2022-07-23T04:57:24;17.00;99.90
10247;DHT22;5168;47.854;7.944;2022-07-23T04:59:50;16.40;99.90
10247;DHT22;5168;47.854;7.944;2022-07-23T05:02:16;16.90;99.90
10247;DHT22;5168;47.854;7.944;2022-07-23T05:09:33;16.50;99.90
10247;DHT22;5168;47.854;7.944;2022-07-23T05:21:44;17.40;99.90
10247;DHT22;5168;47.854;7.944;2022-07-23T05:24:09;17.70;99.90
10247;DHT22;5168;47.854;7.944;2022-07-23T05:36:19;18.30;99.90
10247;DHT22;5168;47.854;7.944;2022-07-23T05:41:10;18.10;99.90
10247;DHT22;5168;47.854;7.944;2022-07-23T05:48:28;17.90;99.90
10247;DHT22;5168;47.854;7.944;2022-07-23T05:53:19;18.20;99.90
10247;DHT22;5168;47.854;7.944;2022-07-23T05:55:45;19.10;99.90
10247;DHT22;5168;47.854;7.944;2022-07-23T05:58:10;18.70;99.90
10247;DHT22;5168;47.854;7.944;2022-07-23T06:03:02;18.50;99.90
10247;DHT22;5168;47.854;7.944;2022-07-23T06:05:28;18.90;99.90
10247;DHT22;5168;47.854;7.944;2022-07-23T06:15:12;19.20;99.90
10247;DHT22;5168;47.854;7.944;2022-07-23T06:17:38;18.90;99.90
10247;DHT22;5168;47.854;7.944;2022-07-23T06:20:06;18.90;99.90
10247;DHT22;5168;47.854;7.944;2022-07-23T06:22:32;19.30;99.90
10247;DHT22;5168;47.854;7.944;2022-07-23T06:24:57;18.80;99.90
10247;DHT22;5168;47.854;7.944;2022-07-23T06:34:41;20.20;99.90
10247;DHT22;5168;47.854;7.944;2022-07-23T06:37:06;19.30;99.90
10247;DHT22;5168;47.854;7.944;2022-07-23T06:39:32;20.20;99.90
10247;DHT22;5168;47.854;7.944;2022-07-23T06:44:23;20.20;99.90
10247;DHT22;5168;47.854;7.944;2022-07-23T06:46:49;20.10;99.90
10247;DHT22;5168;47.854;7.944;2022-07-23T06:58:58;21.00;99.90
10247;DHT22;5168;47.854;7.944;2022-07-23T07:01:24;20.90;99.90
10247;DHT22;5168;47.854;7.944;2022-07-23T07:03:49;21.50;99.90
10247;DHT22;5168;47.854;7.944;2022-07-23T07:06:15;21.00;99.90
10247;DHT22;5168;47.854;7.944;2022-07-23T07:08:41;21.40;99.90
10247;DHT22;5168;47.854;7.944;2022-07-23T07:11:08;21.30;99.90
10247;DHT22;5168;47.854;7.944;2022-07-23T07:13:37;21.30;99.90
10247;DHT22;5168;47.854;7.944;2022-07-23T07:16:03;21.40;99.90
10247;DHT22;5168;47.854;7.944;2022-07-23T07:18:29;21.00;99.90
10247;DHT22;5168;47.854;7.944;2022-07-23T07:20:54;20.50;99.90
10247;DHT22;5168;47.854;7.944;2022-07-23T07:25:47;20.50;99.90
10247;DHT22;5168;47.854;7.944;2022-07-23T07:28:13;20.40;99.90
10247;DHT22;5168;47.854;7.944;2022-07-23T07:30:38;20.40;99.90
10247;DHT22;5168;47.854;7.944;2022-07-23T07:33:04;20.00;99.90
10247;DHT22;5168;47.854;7.944;2022-07-23T07:35:29;19.60;99.90
10247;DHT22;5168;47.854;7.944;2022-07-23T07:42:51;19.30;99.90
10247;DHT22;5168;47.854;7.944;2022-07-23T07:45:19;19.50;99.90
10247;DHT22;5168;47.854;7.944;2022-07-23T07:47:44;18.70;99.90
10247;DHT22;5168;47.854;7.944;2022-07-23T07:50:10;19.30;99.90
10247;DHT22;5168;47.854;7.944;2022-07-23T07:52:36;19.90;99.90
10247;DHT22;5168;47.854;7.944;2022-07-23T07:55:06;19.80;99.90
10247;DHT22;5168;47.854;7.944;2022-07-23T08:04:51;19.80;99.90
10247;DHT22;5168;47.854;7.944;2022-07-23T08:12:09;19.80;99.90
10247;DHT22;5168;47.854;7.944;2022-07-23T08:14:34;19.60;99.90
10247;DHT22;5168;47.854;7.944;2022-07-23T08:26:44;19.70;99.90
10247;DHT22;5168;47.854;7.944;2022-07-23T08:29:09;19.00;99.90
10247;DHT22;5168;47.854;7.944;2022-07-23T08:31:35;18.50;99.90
10247;DHT22;5168;47.854;7.944;2022-07-23T08:34:00;19.20;99.90
10247;DHT22;5168;47.854;7.944;2022-07-23T08:36:27;19.40;99.90
10247;DHT22;5168;47.854;7.944;2022-07-23T08:38:54;19.00;99.90
10247;DHT22;5168;47.854;7.944;2022-07-23T08:41:20;19.30;99.90
10247;DHT22;5168;47.854;7.944;2022-07-23T08:43:45;19.30;99.90
10247;DHT22;5168;47.854;7.944;2022-07-23T08:46:13;19.30;99.90
10247;DHT22;5168;47.854;7.944;2022-07-23T08:48:38;19.30;99.90
10247;DHT22;5168;47.854;7.944;2022-07-23T08:51:05;18.90;99.90
10247;DHT22;5168;47.854;7.944;2022-07-23T08:53:32;20.20;99.90
10247;DHT22;5168;47.854;7.944;2022-07-23T08:56:01;19.90;99.90
10247;DHT22;5168;47.854;7.944;2022-07-23T08:58:28;20.00;99.90
10247;DHT22;5168;47.854;7.944;2022-07-23T09:00:55;19.90;99.90
10247;DHT22;5168;47.854;7.944;2022-07-23T09:03:28;20.10;99.90
10247;DHT22;5168;47.854;7.944;2022-07-23T09:05:55;20.40;99.90
10247;DHT22;5168;47.854;7.944;2022-07-23T09:08:44;20.10;99.90
10247;DHT22;5168;47.854;7.944;2022-07-23T09:11:11;20.40;99.90
10247;DHT22;5168;47.854;7.944;2022-07-23T09:13:50;20.40;99.90
10247;DHT22;5168;47.854;7.944;2022-07-23T09:16:28;20.70;99.90
10247;DHT22;5168;47.854;7.944;2022-07-23T09:19:00;21.30;99.90
10247;DHT22;5168;47.854;7.944;2022-07-23T09:21:27;22.00;99.90
10247;DHT22;5168;47.854;7.944;2022-07-23T09:24:04;21.80;99.90
10247;DHT22;5168;47.854;7.944;2022-07-23T09:26:37;21.50;99.90
10247;DHT22;5168;47.854;7.944;2022-07-23T09:29:11;22.10;99.90
10247;DHT22;5168;47.854;7.944;2022-07-23T09:34:16;22.30;99.90
10247;DHT22;5168;47.854;7.944;2022-07-23T09:36:42;22.10;99.90
10247;DHT22;5168;47.854;7.944;2022-07-23T09:39:08;22.20;99.90
10247;DHT22;5168;47.854;7.944;2022-07-23T09:41:39;23.00;99.90
10247;DHT22;5168;47.854;7.944;2022-07-23T09:44:10;22.30;99.90
10247;DHT22;5168;47.854;7.944;2022-07-23T09:49:13;21.80;99.90
10247;DHT22;5168;47.854;7.944;2022-07-23T09:54:43;22.50;99.90
10247;DHT22;5168;47.854;7.944;2022-07-23T09:57:13;22.50;99.90
10247;DHT22;5168;47.854;7.944;2022-07-23T09:59:42;23.50;99.90
10247;DHT22;5168;47.854;7.944;2022-07-23T10:02:10;23.60;99.90
10247;DHT22;5168;47.854;7.944;2022-07-23T10:04:37;23.90;99.90
10247;DHT22;5168;47.854;7.944;2022-07-23T10:07:05;23.70;99.90
10247;DHT22;5168;47.854;7.944;2022-07-23T10:09:40;23.10;99.90
10247;DHT22;5168;47.854;7.944;2022-07-23T10:12:12;23.40;99.90
10247;DHT22;5168;47.854;7.944;2022-07-23T10:15:05;23.30;99.90
10247;DHT22;5168;47.854;7.944;2022-07-23T10:22:31;23.10;99.90
10247;DHT22;5168;47.854;7.944;2022-07-23T10:28:10;23.40;99.90
10247;DHT22;5168;47.854;7.944;2022-07-23T10:31:04;23.20;99.90
10247;DHT22;5168;47.854;7.944;2022-07-23T10:36:21;23.40;99.90
10247;DHT22;5168;47.854;7.944;2022-07-23T10:39:03;24.00;99.90
10247;DHT22;5168;47.854;7.944;2022-07-23T10:41:38;23.40;99.90
10247;DHT22;5168;47.854;7.944;2022-07-23T10:44:16;23.60;99.90
10247;DHT22;5168;47.854;7.944;2022-07-23T10:47:00;23.80;99.90
10247;DHT22;5168;47.854;7.944;2022-07-23T10:49:32;23.80;99.90
10247;DHT22;5168;47.854;7.944;2022-07-23T10:57:07;23.70;99.90
10247;DHT22;5168;47.854;7.944;2022-07-23T11:02:31;23.20;99.90
10247;DHT22;5168;47.854;7.944;2022-07-23T11:07:27;23.20;99.90
10247;DHT22;5168;47.854;7.944;2022-07-23T11:17:38;24.20;99.90
10247;DHT22;5168;47.854;7.944;2022-07-23T11:25:10;24.70;99.90
10247;DHT22;5168;47.854;7.944;2022-07-23T11:27:40;24.90;99.90
10247;DHT22;5168;47.854;7.944;2022-07-23T11:33:38;25.30;99.90
10247;DHT22;5168;47.854;7.944;2022-07-23T11:35:46;25.20;99.90
10247;DHT22;5168;47.854;7.944;2022-07-23T11:38:14;25.00;99.90
10247;DHT22;5168;47.854;7.944;2022-07-23T11:40:43;25.30;99.90
10247;DHT22;5168;47.854;7.944;2022-07-23T11:43:09;25.40;99.90
10247;DHT22;5168;47.854;7.944;2022-07-23T11:45:38;25.50;99.90
10247;DHT22;5168;47.854;7.944;2022-07-23T11:48:06;25.40;99.90
10247;DHT22;5168;47.854;7.944;2022-07-23T11:52:58;25.30;99.90
10247;DHT22;5168;47.854;7.944;2022-07-23T11:55:24;25.70;99.90
10247;DHT22;5168;47.854;7.944;2022-07-23T11:57:52;26.40;99.90
10247;DHT22;5168;47.854;7.944;2022-07-23T12:00:23;26.40;99.90
10247;DHT22;5168;47.854;7.944;2022-07-23T12:02:55;25.90;99.90
10247;DHT22;5168;47.854;7.944;2022-07-23T12:05:26;25.90;99.90
10247;DHT22;5168;47.854;7.944;2022-07-23T12:07:54;25.90;99.90
10247;DHT22;5168;47.854;7.944;2022-07-23T12:10:38;26.40;99.90
10247;DHT22;5168;47.854;7.944;2022-07-23T12:13:06;26.80;99.90
10247;DHT22;5168;47.854;7.944;2022-07-23T12:15:39;26.20;99.90
10247;DHT22;5168;47.854;7.944;2022-07-23T12:18:07;27.30;99.90
10247;DHT22;5168;47.854;7.944;2022-07-23T12:20:36;26.90;99.90
10247;DHT22;5168;47.854;7.944;2022-07-23T12:23:06;27.00;99.90
10247;DHT22;5168;47.854;7.944;2022-07-23T12:25:34;26.80;99.90
10247;DHT22;5168;47.854;7.944;2022-07-23T12:28:02;26.60;99.90
10247;DHT22;5168;47.854;7.944;2022-07-23T12:30:32;26.30;99.90
10247;DHT22;5168;47.854;7.944;2022-07-23T12:32:59;26.00;99.90
10247;DHT22;5168;47.854;7.944;2022-07-23T12:35:32;26.50;99.90
10247;DHT22;5168;47.854;7.944;2022-07-23T12:38:01;26.60;99.90
10247;DHT22;5168;47.854;7.944;2022-07-23T12:40:31;26.90;99.90
10247;DHT22;5168;47.854;7.944;2022-07-23T12:43:00;27.10;99.90
10247;DHT22;5168;47.854;7.944;2022-07-23T12:45:27;26.90;99.90
10247;DHT22;5168;47.854;7.944;2022-07-23T12:50:38;27.50;99.90
10247;DHT22;5168;47.854;7.944;2022-07-23T12:53:05;27.30;99.90
10247;DHT22;5168;47.854;7.944;2022-07-23T12:55:31;26.60;99.90
10247;DHT22;5168;47.854;7.944;2022-07-23T12:58:20;26.90;99.90
10247;DHT22;5168;47.854;7.944;2022-07-23T13:00:56;27.00;99.90
10247;DHT22;5168;47.854;7.944;2022-07-23T13:03:34;27.00;99.90
10247;DHT22;5168;47.854;7.944;2022-07-23T13:06:01;26.90;99.90
10247;DHT22;5168;47.854;7.944;2022-07-23T13:08:29;26.70;99.90
10247;DHT22;5168;47.854;7.944;2022-07-23T13:10:54;27.30;99.90
10247;DHT22;5168;47.854;7.944;2022-07-23T13:13:23;26.90;99.90
10247;DHT22;5168;47.854;7.944;2022-07-23T13:15:49;27.20;99.90
10247;DHT22;5168;47.854;7.944;2022-07-23T13:18:15;26.40;99.90
10247;DHT22;5168;47.854;7.944;2022-07-23T13:20:42;26.80;99.90
10247;DHT22;5168;47.854;7.944;2022-07-23T13:25:34;26.70;99.90
10247;DHT22;5168;47.854;7.944;2022-07-23T13:28:00;26.90;99.90
10247;DHT22;5168;47.854;7.944;2022-07-23T13:30:26;27.00;99.90
10247;DHT22;5168;47.854;7.944;2022-07-23T13:32:52;27.30;99.90
10247;DHT22;5168;47.854;7.944;2022-07-23T13:40:10;27.70;99.90
10247;DHT22;5168;47.854;7.944;2022-07-23T13:42:36;27.80;99.90
10247;DHT22;5168;47.854;7.944;2022-07-23T13:45:04;27.40;96.70
10247;DHT22;5168;47.854;7.944;2022-07-23T13:47:30;26.70;99.90
10247;DHT22;5168;47.854;7.944;2022-07-23T13:52:22;27.20;99.90
10247;DHT22;5168;47.854;7.944;2022-07-23T13:57:13;26.40;99.90
10247;DHT22;5168;47.854;7.944;2022-07-23T14:04:32;27.60;99.90
10247;DHT22;5168;47.854;7.944;2022-07-23T14:09:24;27.60;99.30
10247;DHT22;5168;47.854;7.944;2022-07-23T14:21:34;27.60;99.90
10247;DHT22;5168;47.854;7.944;2022-07-23T14:23:59;28.40;99.90
10247;DHT22;5168;47.854;7.944;2022-07-23T14:26:25;28.20;99.90
10247;DHT22;5168;47.854;7.944;2022-07-23T14:31:16;27.80;99.90
10247;DHT22;5168;47.854;7.944;2022-07-23T14:33:42;27.60;99.20
10247;DHT22;5168;47.854;7.944;2022-07-23T14:36:07;27.50;99.30
10247;DHT22;5168;47.854;7.944;2022-07-23T14:40:59;27.50;99.90
10247;DHT22;5168;47.854;7.944;2022-07-23T14:43:24;27.20;99.90
10247;DHT22;5168;47.854;7.944;2022-07-23T14:45:50;27.80;97.80
10247;DHT22;5168;47.854;7.944;2022-07-23T14:48:16;27.20;99.90
10247;DHT22;5168;47.854;7.944;2022-07-23T14:50:41;27.30;99.90
10247;DHT22;5168;47.854;7.944;2022-07-23T14:53:07;27.40;99.90
10247;DHT22;5168;47.854;7.944;2022-07-23T15:02:52;26.80;99.50
10247;DHT22;5168;47.854;7.944;2022-07-23T15:05:17;26.90;99.90
10247;DHT22;5168;47.854;7.944;2022-07-23T15:12:35;26.00;99.90
10247;DHT22;5168;47.854;7.944;2022-07-23T15:17:27;25.90;99.90
10247;DHT22;5168;47.854;7.944;2022-07-23T15:27:10;25.90;99.90
10247;DHT22;5168;47.854;7.944;2022-07-23T15:29:35;25.40;99.90
10247;DHT22;5168;47.854;7.944;2022-07-23T15:32:02;25.90;99.90
10247;DHT22;5168;47.854;7.944;2022-07-23T15:34:28;25.40;99.90
10247;DHT22;5168;47.854;7.944;2022-07-23T15:36:53;25.90;99.90
10247;DHT22;5168;47.854;7.944;2022-07-23T15:39:19;25.90;99.90
10247;DHT22;5168;47.854;7.944;2022-07-23T15:46:36;25.60;99.90
10247;DHT22;5168;47.854;7.944;2022-07-23T15:49:02;25.30;99.90
10247;DHT22;5168;47.854;7.944;2022-07-23T15:58:46;24.60;99.90
10247;DHT22;5168;47.854;7.944;2022-07-23T16:01:12;24.90;99.90
10247;DHT22;5168;47.854;7.944;2022-07-23T16:03:37;24.90;99.90
10247;DHT22;5168;47.854;7.944;2022-07-23T16:06:05;24.70;99.90
10247;DHT22;5168;47.854;7.944;2022-07-23T16:08:31;24.30;99.90
10247;DHT22;5168;47.854;7.944;2022-07-23T16:13:24;24.10;99.90
10247;DHT22;5168;47.854;7.944;2022-07-23T16:15:50;23.90;99.90
10247;DHT22;5168;47.854;7.944;2022-07-23T16:20:42;24.10;99.90
10247;DHT22;5168;47.854;7.944;2022-07-23T16:25:34;23.90;99.90
10247;DHT22;5168;47.854;7.944;2022-07-23T16:30:26;23.80;99.90
10247;DHT22;5168;47.854;7.944;2022-07-23T16:35:18;24.10;99.90
10247;DHT22;5168;47.854;7.944;2022-07-23T16:37:43;24.00;99.90
10247;DHT22;5168;47.854;7.944;2022-07-23T16:40:10;24.20;99.90
10247;DHT22;5168;47.854;7.944;2022-07-23T16:45:03;23.80;99.90
10247;DHT22;5168;47.854;7.944;2022-07-23T16:54:48;23.80;99.90
10247;DHT22;5168;47.854;7.944;2022-07-23T16:59:40;23.50;99.90
10247;DHT22;5168;47.854;7.944;2022-07-23T17:02:05;23.50;99.90
10247;DHT22;5168;47.854;7.944;2022-07-23T17:04:31;23.90;99.90
10247;DHT22;5168;47.854;7.944;2022-07-23T17:09:28;23.30;99.90
10247;DHT22;5168;47.854;7.944;2022-07-23T17:14:20;23.30;99.90
10247;DHT22;5168;47.854;7.944;2022-07-23T17:19:12;23.70;99.90
10247;DHT22;5168;47.854;7.944;2022-07-23T17:21:37;23.50;99.90
10247;DHT22;5168;47.854;7.944;2022-07-23T17:28:58;23.80;99.90
10247;DHT22;5168;47.854;7.944;2022-07-23T17:36:15;22.90;99.90
10247;DHT22;5168;47.854;7.944;2022-07-23T17:38:41;22.90;99.90
10247;DHT22;5168;47.854;7.944;2022-07-23T17:41:07;23.40;99.90
10247;DHT22;5168;47.854;7.944;2022-07-23T17:48:25;23.20;99.90
10247;DHT22;5168;47.854;7.944;2022-07-23T17:58:09;23.20;99.90
10247;DHT22;5168;47.854;7.944;2022-07-23T18:00:36;22.30;99.90
10247;DHT22;5168;47.854;7.944;2022-07-23T18:05:28;22.60;99.90
10247;DHT22;5168;47.854;7.944;2022-07-23T18:10:20;22.40;99.90
10247;DHT22;5168;47.854;7.944;2022-07-23T18:12:46;22.20;99.90
10247;DHT22;5168;47.854;7.944;2022-07-23T18:20:06;22.00;99.90
10247;DHT22;5168;47.854;7.944;2022-07-23T18:22:32;21.70;99.90
10247;DHT22;5168;47.854;7.944;2022-07-23T18:27:24;21.30;99.90
10247;DHT22;5168;47.854;7.944;2022-07-23T18:29:50;21.30;99.90
10247;DHT22;5168;47.854;7.944;2022-07-23T18:32:16;21.40;99.90
10247;DHT22;5168;47.854;7.944;2022-07-23T18:34:41;22.00;99.90
10247;DHT22;5168;47.854;7.944;2022-07-23T18:42:01;21.30;99.90
10247;DHT22;5168;47.854;7.944;2022-07-23T18:44:29;21.40;99.90
10247;DHT22;5168;47.854;7.944;2022-07-23T18:46:55;20.80;99.90
10247;DHT22;5168;47.854;7.944;2022-07-23T18:49:21;21.40;99.90
10247;DHT22;5168;47.854;7.944;2022-07-23T18:56:39;20.70;99.90
10247;DHT22;5168;47.854;7.944;2022-07-23T19:06:26;20.50;99.90
10247;DHT22;5168;47.854;7.944;2022-07-23T19:08:52;20.30;99.90
10247;DHT22;5168;47.854;7.944;2022-07-23T19:18:36;20.10;99.90
10247;DHT22;5168;47.854;7.944;2022-07-23T19:23:27;20.50;99.90
10247;DHT22;5168;47.854;7.944;2022-07-23T19:25:53;20.60;99.90
10247;DHT22;5168;47.854;7.944;2022-07-23T19:35:38;19.50;99.90
10247;DHT22;5168;47.854;7.944;2022-07-23T19:38:04;20.40;99.90
10247;DHT22;5168;47.854;7.944;2022-07-23T19:45:21;20.00;99.90
10247;DHT22;5168;47.854;7.944;2022-07-23T19:47:47;19.70;99.90
10247;DHT22;5168;47.854;7.944;2022-07-23T19:50:13;19.30;99.90
10247;DHT22;5168;47.854;7.944;2022-07-23T19:52:39;19.90;99.90
10247;DHT22;5168;47.854;7.944;2022-07-23T19:55:07;19.50;99.90
10247;DHT22;5168;47.854;7.944;2022-07-23T19:57:33;18.90;99.90
10247;DHT22;5168;47.854;7.944;2022-07-23T20:04:50;19.40;99.90
10247;DHT22;5168;47.854;7.944;2022-07-23T20:07:16;19.30;99.90
10247;DHT22;5168;47.854;7.944;2022-07-23T20:09:41;19.10;99.90
10247;DHT22;5168;47.854;7.944;2022-07-23T20:12:08;19.20;99.90
10247;DHT22;5168;47.854;7.944;2022-07-23T20:14:34;19.70;99.90
10247;DHT22;5168;47.854;7.944;2022-07-23T20:17:01;19.70;99.90
10247;DHT22;5168;47.854;7.944;2022-07-23T20:19:27;19.00;99.90
10247;DHT22;5168;47.854;7.944;2022-07-23T20:24:19;19.60;99.90
10247;DHT22;5168;47.854;7.944;2022-07-23T20:26:47;19.00;99.90
10247;DHT22;5168;47.854;7.944;2022-07-23T20:29:14;18.90;99.90
10247;DHT22;5168;47.854;7.944;2022-07-23T20:31:40;18.80;99.90
10247;DHT22;5168;47.854;7.944;2022-07-23T20:36:33;19.00;99.90
10247;DHT22;5168;47.854;7.944;2022-07-23T20:46:17;19.20;99.90
10247;DHT22;5168;47.854;7.944;2022-07-23T20:48:44;19.30;99.90
10247;DHT22;5168;47.854;7.944;2022-07-23T20:51:10;19.20;99.90
10247;DHT22;5168;47.854;7.944;2022-07-23T21:00:54;18.70;99.90
10247;DHT22;5168;47.854;7.944;2022-07-23T21:03:19;18.20;99.90
10247;DHT22;5168;47.854;7.944;2022-07-23T21:05:45;18.40;99.90
10247;DHT22;5168;47.854;7.944;2022-07-23T21:08:11;18.10;99.90
10247;DHT22;5168;47.854;7.944;2022-07-23T21:10:37;18.50;99.90
10247;DHT22;5168;47.854;7.944;2022-07-23T21:15:28;18.60;99.90
10247;DHT22;5168;47.854;7.944;2022-07-23T21:20:20;18.20;99.90
10247;DHT22;5168;47.854;7.944;2022-07-23T21:25:14;18.50;99.90
10247;DHT22;5168;47.854;7.944;2022-07-23T21:27:41;17.90;99.90
10247;DHT22;5168;47.854;7.944;2022-07-23T21:30:08;18.20;99.90
10247;DHT22;5168;47.854;7.944;2022-07-23T21:32:35;18.50;99.90
10247;DHT22;5168;47.854;7.944;2022-07-23T21:35:03;17.40;99.90
10247;DHT22;5168;47.854;7.944;2022-07-23T21:44:46;18.30;99.90
10247;DHT22;5168;47.854;7.944;2022-07-23T21:47:12;17.80;99.90
10247;DHT22;5168;47.854;7.944;2022-07-23T21:49:38;18.50;99.90
10247;DHT22;5168;47.854;7.944;2022-07-23T21:52:03;18.00;99.90
10247;DHT22;5168;47.854;7.944;2022-07-23T21:56:56;17.80;99.90
10247;DHT22;5168;47.854;7.944;2022-07-23T21:59:22;17.60;99.90
10247;DHT22;5168;47.854;7.944;2022-07-23T22:06:40;17.90;99.90
10247;DHT22;5168;47.854;7.944;2022-07-23T22:09:05;17.20;99.90
10247;DHT22;5168;47.854;7.944;2022-07-23T22:11:31;17.20;99.90
10247;DHT22;5168;47.854;7.944;2022-07-23T22:18:48;17.40;99.90
10247;DHT22;5168;47.854;7.944;2022-07-23T22:21:14;17.90;99.90
10247;DHT22;5168;47.854;7.944;2022-07-23T22:23:40;17.00;99.90
10247;DHT22;5168;47.854;7.944;2022-07-23T22:33:23;17.40;99.90
10247;DHT22;5168;47.854;7.944;2022-07-23T22:35:49;17.30;99.90
10247;DHT22;5168;47.854;7.944;2022-07-23T22:38:14;16.80;99.90
10247;DHT22;5168;47.854;7.944;2022-07-23T22:43:06;17.20;99.90
10247;DHT22;5168;47.854;7.944;2022-07-23T22:45:31;16.80;99.90
10247;DHT22;5168;47.854;7.944;2022-07-23T22:47:57;17.70;99.90
10247;DHT22;5168;47.854;7.944;2022-07-23T22:55:15;17.20;99.90
10247;DHT22;5168;47.854;7.944;2022-07-23T22:57:40;17.10;99.90
10247;DHT22;5168;47.854;7.944;2022-07-23T23:00:07;17.60;99.90
10247;DHT22;5168;47.854;7.944;2022-07-23T23:04:59;16.80;99.90
10247;DHT22;5168;47.854;7.944;2022-07-23T23:07:25;17.10;99.90
10247;DHT22;5168;47.854;7.944;2022-07-23T23:09:50;17.30;99.90
10247;DHT22;5168;47.854;7.944;2022-07-23T23:14:42;16.90;99.90
10247;DHT22;5168;47.854;7.944;2022-07-23T23:17:09;16.50;99.90
10247;DHT22;5168;47.854;7.944;2022-07-23T23:22:00;17.50;99.90
10247;DHT22;5168;47.854;7.944;2022-07-23T23:24:26;17.40;99.90
10247;DHT22;5168;47.854;7.944;2022-07-23T23:36:35;16.90;99.90
10247;DHT22;5168;47.854;7.944;2022-07-23T23:39:01;17.40;99.90
10247;DHT22;5168;47.854;7.944;2022-07-23T23:43:52;17.10;99.90
10247;DHT22;5168;47.854;7.944;2022-07-23T23:48:47;16.80;99.90
10247;DHT22;5168;47.854;7.944;2022-07-23T23:53:38;16.60;99.90
10247;DHT22;5168;47.854;7.944;2022-07-23T23:56:04;16.80;99.90